Time;durP1;ratioP1;P1;durP2;ratioP2;P2;SDS_P1;SDS_P2;PMS_P1;PMS_P2;Temp;Humidity;BMP_temperature;BMP_pressure;BME280_temperature;BME280_humidity;BME280_pressure;Samples;Min_cycle;Max_cycle;Signal;HPM_P1;HPM_P2
2023/08/27 00:00:16;;;;;;;;;;;14.30;99.90;;;;;;5118091;28;19915;-41
2023/08/27 00:02:41;;;;;;;;;;;14.30;99.90;;;;;;5117385;27;19912;-40
2023/08/27 00:05:07;;;;;;;;;;;14.20;99.90;;;;;;5126338;27;19924;-40
2023/08/27 00:07:34;;;;;;;;;;;14.20;99.90;;;;;;5116852;27;19919;-43
2023/08/27 00:10:00;;;;;;;;;;;14.30;99.90;;;;;;5121456;27;20355;-43
2023/08/27 00:12:25;;;;;;;;;;;14.20;99.90;;;;;;5117063;27;19912;-40
2023/08/27 00:14:51;;;;;;;;;;;14.10;99.90;;;;;;5122852;27;19911;-40
2023/08/27 00:17:17;;;;;;;;;;;14.20;99.90;;;;;;5134578;27;19956;-41
2023/08/27 00:19:42;;;;;;;;;;;14.10;99.90;;;;;;5131038;27;20382;-41
2023/08/27 00:22:07;;;;;;;;;;;14.20;99.90;;;;;;5134011;27;19911;-40
2023/08/27 00:24:33;;;;;;;;;;;14.10;99.90;;;;;;5131982;27;19964;-39
2023/08/27 00:26:58;;;;;;;;;;;14.10;99.90;;;;;;5117811;27;19918;-40
2023/08/27 00:29:24;;;;;;;;;;;14.10;99.90;;;;;;5121445;27;19938;-41
2023/08/27 00:31:49;;;;;;;;;;;14.10;99.90;;;;;;5132869;27;19916;-41
2023/08/27 00:34:15;;;;;;;;;;;14.00;99.90;;;;;;5117866;27;20003;-40
2023/08/27 00:36:41;;;;;;;;;;;14.10;99.90;;;;;;5126475;27;19919;-40
2023/08/27 00:39:06;;;;;;;;;;;14.00;99.90;;;;;;5128367;27;19955;-40
2023/08/27 00:41:32;;;;;;;;;;;14.00;99.90;;;;;;5120116;27;20248;-40
2023/08/27 00:43:57;;;;;;;;;;;14.00;99.90;;;;;;5125837;27;20004;-41
2023/08/27 00:46:23;;;;;;;;;;;14.10;99.90;;;;;;5126395;27;19963;-42
2023/08/27 00:48:49;;;;;;;;;;;14.10;99.90;;;;;;5123581;27;19915;-43
2023/08/27 00:51:15;;;;;;;;;;;14.10;99.90;;;;;;5123659;27;19912;-41
2023/08/27 00:53:40;;;;;;;;;;;14.10;99.90;;;;;;5124383;27;19915;-41
2023/08/27 00:56:06;;;;;;;;;;;14.10;99.90;;;;;;5137087;27;20330;-40
2023/08/27 00:58:31;;;;;;;;;;;14.10;99.90;;;;;;5136852;27;19911;-40
2023/08/27 01:00:57;;;;;;;;;;;14.10;99.90;;;;;;5117706;27;19965;-40
2023/08/27 01:03:23;;;;;;;;;;;14.10;99.90;;;;;;5116290;28;20030;-41
2023/08/27 01:05:48;;;;;;;;;;;14.10;99.90;;;;;;5123554;27;19916;-40
2023/08/27 01:08:19;;;;;;;;;;;14.10;99.90;;;;;;5136818;27;19908;-40
2023/08/27 01:10:57;;;;;;;;;;;14.10;99.90;;;;;;5119582;27;19912;-39
2023/08/27 01:13:29;;;;;;;;;;;14.10;99.90;;;;;;5114915;28;19943;-40
2023/08/27 01:15:57;;;;;;;;;;;14.20;99.90;;;;;;5116239;28;19911;-41
2023/08/27 01:18:23;;;;;;;;;;;14.20;99.90;;;;;;5116148;28;19954;-42
2023/08/27 01:20:49;;;;;;;;;;;14.10;99.90;;;;;;5123988;27;19943;-40
2023/08/27 01:23:14;;;;;;;;;;;14.10;99.90;;;;;;5136471;27;19916;-40
2023/08/27 01:25:42;;;;;;;;;;;14.10;99.90;;;;;;5131958;27;19923;-40
2023/08/27 01:28:08;;;;;;;;;;;14.10;99.90;;;;;;5126416;27;19919;-41
2023/08/27 01:30:36;;;;;;;;;;;14.10;99.90;;;;;;5128588;27;19911;-41
2023/08/27 01:33:05;;;;;;;;;;;14.10;99.90;;;;;;5115680;27;19916;-39
2023/08/27 01:35:31;;;;;;;;;;;14.10;99.90;;;;;;5116343;27;19924;-41
2023/08/27 01:37:56;;;;;;;;;;;14.10;99.90;;;;;;5120203;27;19912;-39
2023/08/27 01:40:22;;;;;;;;;;;14.20;99.90;;;;;;5134711;27;19918;-40
2023/08/27 01:42:47;;;;;;;;;;;14.20;99.90;;;;;;5132304;27;20442;-40
2023/08/27 01:45:13;;;;;;;;;;;14.20;99.90;;;;;;5118168;27;19919;-40
2023/08/27 01:47:38;;;;;;;;;;;14.20;99.90;;;;;;5124519;27;19935;-41
2023/08/27 01:50:05;;;;;;;;;;;14.20;99.90;;;;;;5134717;27;19912;-40
2023/08/27 01:52:31;;;;;;;;;;;14.30;99.90;;;;;;5119390;27;19966;-40
2023/08/27 01:54:57;;;;;;;;;;;14.30;99.90;;;;;;5117216;27;19916;-43
2023/08/27 01:57:22;;;;;;;;;;;14.40;99.90;;;;;;5121387;27;19911;-41
2023/08/27 01:59:48;;;;;;;;;;;14.30;99.90;;;;;;5115117;28;19955;-42
2023/08/27 02:02:13;;;;;;;;;;;14.40;99.90;;;;;;5122509;27;19912;-40
2023/08/27 02:04:38;;;;;;;;;;;14.40;99.90;;;;;;5114981;28;19919;-40
2023/08/27 02:07:04;;;;;;;;;;;14.50;99.90;;;;;;5121515;27;19912;-41
2023/08/27 02:09:29;;;;;;;;;;;14.50;99.90;;;;;;5115991;27;19919;-39
2023/08/27 02:11:55;;;;;;;;;;;14.50;99.90;;;;;;5123155;27;19923;-39
2023/08/27 02:14:21;;;;;;;;;;;14.50;99.90;;;;;;5114909;28;19911;-40
2023/08/27 02:16:46;;;;;;;;;;;14.50;99.90;;;;;;5124072;27;20359;-39
2023/08/27 02:19:12;;;;;;;;;;;14.50;99.90;;;;;;5133530;27;20007;-39
2023/08/27 02:21:37;;;;;;;;;;;14.50;99.90;;;;;;5126592;27;19971;-42
2023/08/27 02:24:03;;;;;;;;;;;14.50;99.90;;;;;;5134599;27;19912;-41
2023/08/27 02:26:28;;;;;;;;;;;14.50;99.90;;;;;;5131999;27;19927;-40
2023/08/27 02:28:54;;;;;;;;;;;14.50;99.90;;;;;;5117292;27;19912;-41
2023/08/27 02:31:20;;;;;;;;;;;14.50;99.90;;;;;;5123552;27;19915;-40
2023/08/27 02:33:45;;;;;;;;;;;14.40;99.90;;;;;;5113401;28;19941;-42
2023/08/27 02:36:11;;;;;;;;;;;14.40;99.90;;;;;;5113538;27;20366;-41
2023/08/27 02:38:36;;;;;;;;;;;14.40;99.90;;;;;;5121183;27;20006;-41
2023/08/27 02:41:02;;;;;;;;;;;14.40;99.90;;;;;;5133208;27;19918;-41
2023/08/27 02:43:28;;;;;;;;;;;14.30;99.90;;;;;;5118305;27;19958;-40
2023/08/27 02:45:53;;;;;;;;;;;14.30;99.90;;;;;;5120816;27;19920;-42
2023/08/27 02:48:19;;;;;;;;;;;14.30;99.90;;;;;;5122632;27;19918;-39
2023/08/27 02:50:44;;;;;;;;;;;14.20;99.90;;;;;;5133505;27;19942;-40
2023/08/27 02:53:10;;;;;;;;;;;14.20;99.90;;;;;;5140227;27;19969;-41
2023/08/27 02:55:35;;;;;;;;;;;14.20;99.90;;;;;;5155378;27;20339;-42
2023/08/27 02:58:01;;;;;;;;;;;14.20;99.90;;;;;;5155506;27;19907;-42
2023/08/27 03:00:26;;;;;;;;;;;14.20;99.90;;;;;;5120438;27;19980;-40
2023/08/27 03:02:52;;;;;;;;;;;14.10;99.90;;;;;;5113989;28;20377;-40
2023/08/27 03:05:18;;;;;;;;;;;14.10;99.90;;;;;;5113816;27;19927;-41
2023/08/27 03:07:43;;;;;;;;;;;14.00;99.90;;;;;;5121755;27;19911;-42
2023/08/27 03:10:09;;;;;;;;;;;14.00;99.90;;;;;;5132002;27;19963;-44
2023/08/27 03:12:34;;;;;;;;;;;14.00;99.90;;;;;;5115159;27;19912;-40
2023/08/27 03:15:00;;;;;;;;;;;14.00;99.90;;;;;;5113791;28;20060;-40
2023/08/27 03:17:25;;;;;;;;;;;14.00;99.90;;;;;;5117656;27;19911;-42
2023/08/27 03:19:51;;;;;;;;;;;14.00;99.90;;;;;;5133466;27;19911;-39
2023/08/27 03:22:16;;;;;;;;;;;14.00;99.90;;;;;;5117478;27;19959;-41
2023/08/27 03:24:42;;;;;;;;;;;13.90;99.90;;;;;;5133790;27;19922;-39
2023/08/27 03:27:07;;;;;;;;;;;13.90;99.90;;;;;;5133252;27;20006;-40
2023/08/27 03:29:33;;;;;;;;;;;13.90;99.90;;;;;;5114558;27;20374;-39
2023/08/27 03:31:58;;;;;;;;;;;13.90;99.90;;;;;;5132670;27;19915;-40
2023/08/27 03:34:24;;;;;;;;;;;13.90;99.90;;;;;;5124843;27;19917;-40
2023/08/27 03:36:49;;;;;;;;;;;13.90;99.90;;;;;;5133038;27;19912;-40
2023/08/27 03:39:15;;;;;;;;;;;14.00;99.90;;;;;;5123602;27;19950;-40
2023/08/27 03:41:41;;;;;;;;;;;14.00;99.90;;;;;;5120004;27;19922;-39
2023/08/27 03:44:06;;;;;;;;;;;14.00;99.90;;;;;;5120067;27;20006;-40
2023/08/27 03:46:32;;;;;;;;;;;14.00;99.90;;;;;;5133296;27;20038;-41
2023/08/27 03:49:00;;;;;;;;;;;14.00;99.90;;;;;;5128135;27;19912;-40
2023/08/27 03:51:28;;;;;;;;;;;14.00;99.90;;;;;;5123648;27;19934;-41
2023/08/27 03:53:57;;;;;;;;;;;14.00;99.90;;;;;;5129515;27;20263;-41
2023/08/27 03:56:23;;;;;;;;;;;14.00;99.90;;;;;;5113252;28;19957;-40
2023/08/27 03:58:48;;;;;;;;;;;14.10;99.90;;;;;;5113981;28;19912;-40
2023/08/27 04:01:14;;;;;;;;;;;14.10;99.90;;;;;;5121269;28;19912;-39
2023/08/27 04:03:39;;;;;;;;;;;14.10;99.90;;;;;;5113084;28;20370;-42
2023/08/27 04:06:10;;;;;;;;;;;14.10;99.90;;;;;;5129432;28;20027;-42
2023/08/27 04:08:36;;;;;;;;;;;14.10;99.90;;;;;;5133217;28;19911;-42
2023/08/27 04:11:01;;;;;;;;;;;14.10;99.90;;;;;;5123173;28;19922;-42
2023/08/27 04:13:27;;;;;;;;;;;14.10;99.90;;;;;;5112812;28;19912;-45
2023/08/27 04:15:59;;;;;;;;;;;14.10;99.90;;;;;;5121715;28;19912;-40
2023/08/27 04:18:25;;;;;;;;;;;14.10;99.90;;;;;;5125045;28;20415;-40
2023/08/27 04:20:50;;;;;;;;;;;14.10;99.90;;;;;;5121821;28;19955;-40
2023/08/27 04:23:16;;;;;;;;;;;14.10;99.90;;;;;;5133681;28;20408;-41
2023/08/27 04:25:44;;;;;;;;;;;14.10;99.90;;;;;;5129660;28;19926;-40
2023/08/27 04:28:10;;;;;;;;;;;14.10;99.90;;;;;;5119084;28;19919;-39
2023/08/27 04:30:35;;;;;;;;;;;14.10;99.90;;;;;;5125307;28;19911;-39
2023/08/27 04:33:01;;;;;;;;;;;14.10;99.90;;;;;;5113006;28;19922;-40
2023/08/27 04:35:26;;;;;;;;;;;14.10;99.90;;;;;;5113960;28;19916;-41
2023/08/27 04:37:52;;;;;;;;;;;14.10;99.90;;;;;;5117195;28;19943;-40
2023/08/27 04:40:17;;;;;;;;;;;14.10;99.90;;;;;;5131731;28;19918;-40
2023/08/27 04:42:43;;;;;;;;;;;14.10;99.90;;;;;;5129484;28;19915;-40
2023/08/27 04:45:09;;;;;;;;;;;14.10;99.90;;;;;;5130895;27;20282;-41
2023/08/27 04:47:35;;;;;;;;;;;14.00;99.90;;;;;;5131704;27;20007;-40
2023/08/27 04:50:00;;;;;;;;;;;14.10;99.90;;;;;;5124035;27;20002;-40
2023/08/27 04:52:25;;;;;;;;;;;14.00;99.90;;;;;;5126734;27;19919;-40
2023/08/27 04:54:51;;;;;;;;;;;14.00;99.90;;;;;;5129491;27;19957;-39
2023/08/27 04:57:16;;;;;;;;;;;14.00;99.90;;;;;;5137034;27;19915;-41
2023/08/27 04:59:42;;;;;;;;;;;14.00;99.90;;;;;;5116803;27;19938;-41
2023/08/27 05:02:07;;;;;;;;;;;14.00;99.90;;;;;;5116418;28;19908;-41
2023/08/27 05:04:33;;;;;;;;;;;14.00;99.90;;;;;;5123363;27;20369;-40
2023/08/27 05:06:58;;;;;;;;;;;14.00;99.90;;;;;;5129787;27;19919;-40
2023/08/27 05:09:25;;;;;;;;;;;14.00;99.90;;;;;;5123605;27;19912;-39
2023/08/27 05:11:50;;;;;;;;;;;14.00;99.90;;;;;;5116139;28;19961;-40
2023/08/27 05:14:16;;;;;;;;;;;14.00;99.90;;;;;;5121324;27;19911;-40
2023/08/27 05:16:41;;;;;;;;;;;14.00;99.90;;;;;;5122886;27;19973;-39
2023/08/27 05:19:07;;;;;;;;;;;14.00;99.90;;;;;;5134171;27;19916;-44
2023/08/27 05:21:32;;;;;;;;;;;14.00;99.90;;;;;;5133441;27;20374;-39
2023/08/27 05:23:58;;;;;;;;;;;14.10;99.90;;;;;;5130594;27;19959;-40
2023/08/27 05:26:23;;;;;;;;;;;14.10;99.90;;;;;;5130444;27;19925;-39
2023/08/27 05:28:49;;;;;;;;;;;14.10;99.90;;;;;;5120008;27;19911;-39
2023/08/27 05:31:14;;;;;;;;;;;14.10;99.90;;;;;;5131668;27;20078;-40
2023/08/27 05:33:40;;;;;;;;;;;14.20;99.90;;;;;;5116712;27;19918;-39
2023/08/27 05:36:06;;;;;;;;;;;14.30;99.90;;;;;;5130678;27;19912;-41
2023/08/27 05:38:31;;;;;;;;;;;14.30;99.90;;;;;;5133265;27;19956;-40
2023/08/27 05:40:58;;;;;;;;;;;14.40;99.90;;;;;;5134895;27;19963;-40
2023/08/27 05:43:24;;;;;;;;;;;14.50;99.90;;;;;;5125295;27;19911;-40
2023/08/27 05:45:49;;;;;;;;;;;14.50;99.90;;;;;;5117900;27;19927;-39
2023/08/27 05:48:15;;;;;;;;;;;14.60;99.90;;;;;;5122032;27;20016;-41
2023/08/27 05:50:40;;;;;;;;;;;14.60;99.90;;;;;;5124541;27;20343;-40
2023/08/27 05:53:06;;;;;;;;;;;14.70;99.90;;;;;;5135791;27;19959;-40
2023/08/27 05:55:32;;;;;;;;;;;14.80;99.90;;;;;;5127921;27;19912;-40
2023/08/27 05:57:57;;;;;;;;;;;14.80;99.90;;;;;;5125710;27;19965;-41
2023/08/27 06:00:23;;;;;;;;;;;14.90;99.90;;;;;;5125910;27;19911;-43
2023/08/27 06:02:48;;;;;;;;;;;14.90;99.90;;;;;;5129307;27;19916;-40
2023/08/27 06:05:14;;;;;;;;;;;15.00;99.90;;;;;;5123884;27;19926;-40
2023/08/27 06:07:39;;;;;;;;;;;15.00;99.90;;;;;;5117260;27;19980;-39
2023/08/27 06:10:05;;;;;;;;;;;15.00;99.90;;;;;;5125709;27;20335;-40
2023/08/27 06:12:31;;;;;;;;;;;15.00;99.90;;;;;;5122031;27;20275;-40
2023/08/27 06:14:56;;;;;;;;;;;15.00;99.90;;;;;;5122000;27;19919;-41
2023/08/27 06:17:22;;;;;;;;;;;14.90;99.90;;;;;;5116033;27;19912;-41
2023/08/27 06:19:47;;;;;;;;;;;14.90;99.90;;;;;;5114728;27;19919;-40
2023/08/27 06:22:13;;;;;;;;;;;14.80;99.90;;;;;;5120361;27;19916;-41
2023/08/27 06:24:38;;;;;;;;;;;14.80;99.90;;;;;;5118115;27;19980;-39
2023/08/27 06:27:04;;;;;;;;;;;14.80;99.90;;;;;;5130641;27;19911;-41
2023/08/27 06:29:29;;;;;;;;;;;14.80;99.90;;;;;;5125806;27;19957;-39
2023/08/27 06:31:55;;;;;;;;;;;14.70;99.90;;;;;;5126391;27;20278;-39
2023/08/27 06:34:21;;;;;;;;;;;14.70;99.90;;;;;;5124162;27;19915;-41
2023/08/27 06:36:46;;;;;;;;;;;14.70;99.90;;;;;;5129160;27;20284;-39
2023/08/27 06:39:12;;;;;;;;;;;14.60;99.90;;;;;;5122067;27;19912;-43
2023/08/27 06:41:37;;;;;;;;;;;14.60;99.90;;;;;;5116490;27;19918;-42
2023/08/27 06:44:03;;;;;;;;;;;14.50;99.90;;;;;;5124065;27;19918;-41
2023/08/27 06:46:28;;;;;;;;;;;14.50;99.90;;;;;;5124725;27;20422;-41
2023/08/27 06:48:54;;;;;;;;;;;14.40;99.90;;;;;;5132338;27;20320;-43
2023/08/27 06:51:19;;;;;;;;;;;14.50;99.90;;;;;;5121688;27;19918;-40
2023/08/27 06:53:44;;;;;;;;;;;14.40;99.90;;;;;;5134437;27;19911;-41
2023/08/27 06:56:10;;;;;;;;;;;14.40;99.90;;;;;;5138774;27;20001;-42
2023/08/27 06:58:35;;;;;;;;;;;14.40;99.90;;;;;;5144182;27;20387;-42
2023/08/27 07:01:04;;;;;;;;;;;14.40;99.90;;;;;;5133517;27;19912;-41
2023/08/27 07:03:30;;;;;;;;;;;14.40;99.90;;;;;;5134113;27;19911;-41
2023/08/27 07:05:56;;;;;;;;;;;14.50;99.90;;;;;;5120449;27;19971;-41
2023/08/27 07:08:21;;;;;;;;;;;14.50;99.90;;;;;;5134592;27;19919;-44
2023/08/27 07:10:47;;;;;;;;;;;14.50;99.90;;;;;;5125907;27;19915;-40
2023/08/27 07:13:12;;;;;;;;;;;14.60;99.90;;;;;;5131492;27;20382;-42
2023/08/27 07:15:37;;;;;;;;;;;14.60;99.90;;;;;;5116850;27;19911;-40
2023/08/27 07:18:03;;;;;;;;;;;14.60;99.90;;;;;;5131541;27;19912;-40
2023/08/27 07:20:29;;;;;;;;;;;14.70;99.90;;;;;;5131227;27;19950;-44
2023/08/27 07:22:55;;;;;;;;;;;14.70;99.90;;;;;;5125763;27;20004;-41
2023/08/27 07:25:23;;;;;;;;;;;14.70;99.90;;;;;;5113443;27;19926;-40
2023/08/27 07:27:48;;;;;;;;;;;14.70;99.90;;;;;;5129742;27;19919;-40
2023/08/27 07:30:14;;;;;;;;;;;14.70;99.90;;;;;;5120468;27;20285;-41
2023/08/27 07:32:39;;;;;;;;;;;14.80;99.90;;;;;;5131924;27;19918;-41
2023/08/27 07:35:05;;;;;;;;;;;14.80;99.90;;;;;;5134042;27;19912;-43
2023/08/27 07:37:32;;;;;;;;;;;14.80;99.90;;;;;;5121070;27;19916;-41
2023/08/27 07:39:57;;;;;;;;;;;14.90;99.90;;;;;;5113285;27;20346;-40
2023/08/27 07:42:23;;;;;;;;;;;14.90;99.90;;;;;;5112938;27;19950;-40
2023/08/27 07:44:48;;;;;;;;;;;15.00;99.90;;;;;;5117189;27;20302;-41
2023/08/27 07:47:14;;;;;;;;;;;15.00;99.90;;;;;;5129928;27;20036;-43
2023/08/27 07:49:40;;;;;;;;;;;15.10;99.90;;;;;;5131605;27;19934;-42
2023/08/27 07:52:05;;;;;;;;;;;15.00;99.90;;;;;;5130602;27;19979;-43
2023/08/27 07:54:31;;;;;;;;;;;15.10;99.90;;;;;;5127757;27;19916;-41
2023/08/27 07:56:56;;;;;;;;;;;15.10;99.90;;;;;;5124097;27;19916;-43
2023/08/27 07:59:22;;;;;;;;;;;15.20;99.90;;;;;;5114231;28;20251;-41
2023/08/27 08:01:47;;;;;;;;;;;15.20;99.90;;;;;;5116384;28;19991;-40
2023/08/27 08:04:13;;;;;;;;;;;15.30;99.90;;;;;;5113546;28;19908;-41
2023/08/27 08:06:38;;;;;;;;;;;15.30;99.90;;;;;;5115133;28;19920;-40
2023/08/27 08:09:04;;;;;;;;;;;15.20;99.90;;;;;;5123149;28;19918;-40
2023/08/27 08:11:29;;;;;;;;;;;15.20;99.90;;;;;;5128720;28;19912;-41
2023/08/27 08:13:55;;;;;;;;;;;15.30;99.90;;;;;;5133373;28;19908;-41
2023/08/27 08:16:23;;;;;;;;;;;15.30;99.90;;;;;;5131796;28;20493;-40
2023/08/27 08:18:48;;;;;;;;;;;15.30;99.90;;;;;;5115306;28;20420;-41
2023/08/27 08:21:14;;;;;;;;;;;15.40;99.90;;;;;;5117808;28;19912;-43
2023/08/27 08:23:39;;;;;;;;;;;15.50;99.90;;;;;;5129666;27;19912;-44
2023/08/27 08:26:05;;;;;;;;;;;15.50;99.90;;;;;;5123196;27;19919;-39
2023/08/27 08:28:31;;;;;;;;;;;15.50;99.90;;;;;;5130966;27;19934;-41
2023/08/27 08:30:56;;;;;;;;;;;15.70;99.90;;;;;;5122832;27;20386;-42
2023/08/27 08:33:22;;;;;;;;;;;15.80;99.90;;;;;;5134942;27;19956;-40
2023/08/27 08:35:47;;;;;;;;;;;15.80;99.90;;;;;;5125933;27;20679;-45
2023/08/27 08:38:13;;;;;;;;;;;15.90;99.90;;;;;;5123356;27;19911;-41
2023/08/27 08:40:40;;;;;;;;;;;16.00;99.90;;;;;;5126976;27;19918;-43
2023/08/27 08:43:06;;;;;;;;;;;16.00;99.90;;;;;;5115523;27;19911;-42
2023/08/27 08:45:36;;;;;;;;;;;16.00;99.90;;;;;;5125026;27;19974;-41
2023/08/27 08:48:05;;;;;;;;;;;16.00;99.90;;;;;;5122434;27;19916;-42
2023/08/27 08:50:35;;;;;;;;;;;16.10;99.90;;;;;;5121224;27;19912;-41
2023/08/27 08:53:05;;;;;;;;;;;16.20;99.90;;;;;;5119110;27;19912;-42
2023/08/27 08:55:32;;;;;;;;;;;16.20;99.90;;;;;;5125973;27;20290;-40
2023/08/27 08:58:03;;;;;;;;;;;16.30;99.90;;;;;;5118671;27;19919;-45
2023/08/27 09:00:29;;;;;;;;;;;16.40;99.90;;;;;;5118538;27;19911;-41
2023/08/27 09:02:55;;;;;;;;;;;16.50;99.90;;;;;;5123458;27;19977;-42
2023/08/27 09:05:21;;;;;;;;;;;16.50;99.90;;;;;;5125904;27;20342;-40
2023/08/27 09:07:48;;;;;;;;;;;16.50;99.90;;;;;;5116912;27;19912;-40
2023/08/27 09:10:14;;;;;;;;;;;16.70;99.90;;;;;;5127472;27;20247;-45
2023/08/27 09:12:40;;;;;;;;;;;16.90;99.90;;;;;;5121614;27;19965;-43
2023/08/27 09:15:07;;;;;;;;;;;16.90;99.90;;;;;;5131144;27;20381;-41
2023/08/27 09:17:32;;;;;;;;;;;17.00;99.90;;;;;;5134199;27;19919;-41
2023/08/27 09:19:58;;;;;;;;;;;17.00;99.90;;;;;;5131560;27;19912;-40
2023/08/27 09:22:24;;;;;;;;;;;17.10;99.90;;;;;;5133237;27;20370;-41
2023/08/27 09:24:50;;;;;;;;;;;17.30;99.90;;;;;;5136293;27;19938;-43
2023/08/27 09:27:15;;;;;;;;;;;17.30;99.90;;;;;;5122638;27;20282;-40
2023/08/27 09:29:42;;;;;;;;;;;17.50;99.90;;;;;;5121067;27;19966;-42
2023/08/27 09:32:07;;;;;;;;;;;17.50;99.90;;;;;;5112550;27;19912;-44
2023/08/27 09:34:39;;;;;;;;;;;17.50;99.90;;;;;;5125888;27;19918;-43
2023/08/27 09:37:07;;;;;;;;;;;17.60;99.90;;;;;;5134327;27;19911;-43
2023/08/27 09:39:33;;;;;;;;;;;17.60;99.90;;;;;;5116993;27;19919;-42
2023/08/27 09:41:59;;;;;;;;;;;17.60;99.90;;;;;;5123295;27;19916;-41
2023/08/27 09:44:25;;;;;;;;;;;17.70;99.90;;;;;;5119182;27;19918;-41
2023/08/27 09:46:51;;;;;;;;;;;17.80;99.90;;;;;;5117648;27;19935;-42
2023/08/27 09:49:17;;;;;;;;;;;17.90;99.90;;;;;;5123244;27;19916;-43
2023/08/27 09:51:43;;;;;;;;;;;18.00;99.90;;;;;;5119937;27;20366;-43
2023/08/27 09:54:19;;;;;;;;;;;18.10;99.90;;;;;;5114625;27;19917;-41
2023/08/27 09:56:46;;;;;;;;;;;18.20;99.90;;;;;;5116243;27;19919;-41
2023/08/27 09:59:14;;;;;;;;;;;18.40;99.90;;;;;;5117126;27;19912;-46
2023/08/27 10:01:39;;;;;;;;;;;18.40;99.90;;;;;;5119130;27;19919;-42
2023/08/27 10:04:07;;;;;;;;;;;18.50;99.90;;;;;;5119885;27;19916;-42
2023/08/27 10:06:36;;;;;;;;;;;18.60;99.90;;;;;;5120000;27;19930;-41
2023/08/27 10:09:03;;;;;;;;;;;18.50;99.90;;;;;;5117396;27;19920;-42
2023/08/27 10:11:28;;;;;;;;;;;18.40;99.90;;;;;;5123776;27;19934;-42
2023/08/27 10:13:57;;;;;;;;;;;18.50;99.90;;;;;;5114744;28;20334;-42
2023/08/27 10:16:23;;;;;;;;;;;18.40;99.90;;;;;;5122525;27;19919;-42
2023/08/27 10:18:48;;;;;;;;;;;18.40;99.90;;;;;;5119224;27;19912;-42
2023/08/27 10:21:14;;;;;;;;;;;18.40;99.90;;;;;;5129062;27;19955;-43
2023/08/27 10:23:39;;;;;;;;;;;18.40;99.90;;;;;;5115626;27;19912;-41
2023/08/27 10:26:05;;;;;;;;;;;18.60;99.90;;;;;;5119929;27;19926;-41
2023/08/27 10:28:32;;;;;;;;;;;18.70;99.90;;;;;;5127915;27;19918;-40
2023/08/27 10:30:58;;;;;;;;;;;18.90;99.90;;;;;;5125261;27;19929;-42
2023/08/27 10:33:23;;;;;;;;;;;19.00;99.90;;;;;;5114335;28;20459;-40
2023/08/27 10:35:51;;;;;;;;;;;19.20;99.90;;;;;;5116858;27;19924;-42
2023/08/27 10:38:17;;;;;;;;;;;19.30;99.90;;;;;;5130515;27;19911;-42
2023/08/27 10:40:43;;;;;;;;;;;19.30;99.90;;;;;;5121295;27;20010;-41
2023/08/27 10:43:15;;;;;;;;;;;19.40;99.90;;;;;;5133356;27;19907;-43
2023/08/27 10:45:40;;;;;;;;;;;19.50;99.90;;;;;;5119705;27;20065;-41
2023/08/27 10:48:07;;;;;;;;;;;19.50;99.90;;;;;;5130509;27;20006;-41
2023/08/27 10:50:47;;;;;;;;;;;19.60;99.90;;;;;;5127270;27;20005;-41
2023/08/27 10:53:13;;;;;;;;;;;19.70;99.90;;;;;;5113806;27;19923;-41
2023/08/27 10:55:40;;;;;;;;;;;19.70;99.90;;;;;;5118561;27;19911;-42
2023/08/27 10:58:20;;;;;;;;;;;19.60;99.90;;;;;;5123539;27;19954;-40
2023/08/27 11:01:04;;;;;;;;;;;19.50;99.90;;;;;;5119845;27;20009;-43
2023/08/27 11:03:48;;;;;;;;;;;19.40;99.90;;;;;;5116497;27;19958;-41
2023/08/27 11:06:14;;;;;;;;;;;19.30;99.90;;;;;;5116155;27;19920;-42
2023/08/27 11:08:40;;;;;;;;;;;19.10;99.90;;;;;;5123704;27;20438;-41
2023/08/27 11:11:14;;;;;;;;;;;19.00;99.90;;;;;;5116712;27;20586;-41
2023/08/27 11:13:46;;;;;;;;;;;19.00;99.90;;;;;;5118102;27;20349;-41
2023/08/27 11:16:12;;;;;;;;;;;19.00;99.90;;;;;;5115770;27;19943;-40
2023/08/27 11:18:47;;;;;;;;;;;19.00;99.90;;;;;;5127673;27;19911;-42
2023/08/27 11:21:20;;;;;;;;;;;18.90;99.90;;;;;;5119117;27;19907;-42
2023/08/27 11:24:06;;;;;;;;;;;18.90;99.90;;;;;;5123351;27;20270;-41
2023/08/27 11:26:32;;;;;;;;;;;18.80;99.90;;;;;;5119222;27;19959;-40
2023/08/27 11:28:58;;;;;;;;;;;18.70;99.90;;;;;;5131056;27;19982;-40
2023/08/27 11:31:24;;;;;;;;;;;18.60;99.90;;;;;;5127807;27;20286;-42
2023/08/27 11:33:49;;;;;;;;;;;18.70;99.90;;;;;;5144765;27;19911;-40
2023/08/27 11:36:15;;;;;;;;;;;18.70;99.90;;;;;;5118181;27;20306;-42
2023/08/27 11:38:40;;;;;;;;;;;18.70;99.90;;;;;;5119901;27;19973;-42
2023/08/27 11:41:06;;;;;;;;;;;18.80;99.90;;;;;;5131686;27;19914;-44
2023/08/27 11:43:33;;;;;;;;;;;18.70;99.90;;;;;;5147739;27;20417;-41
2023/08/27 11:45:58;;;;;;;;;;;18.70;99.90;;;;;;5135604;27;19931;-42
2023/08/27 11:48:25;;;;;;;;;;;18.70;99.90;;;;;;5139261;27;19912;-45
2023/08/27 11:50:50;;;;;;;;;;;18.60;99.90;;;;;;5136567;27;19954;-40
2023/08/27 11:53:16;;;;;;;;;;;18.60;99.90;;;;;;5142117;27;20035;-41
2023/08/27 11:55:43;;;;;;;;;;;18.60;99.90;;;;;;5130661;27;19916;-42
2023/08/27 11:58:09;;;;;;;;;;;18.60;99.90;;;;;;5125968;27;20377;-40
2023/08/27 12:00:35;;;;;;;;;;;18.50;99.90;;;;;;5131416;27;19961;-40
2023/08/27 12:03:01;;;;;;;;;;;18.50;99.90;;;;;;5116955;28;19960;-41
2023/08/27 12:05:27;;;;;;;;;;;18.30;99.90;;;;;;5123511;28;19923;-42
2023/08/27 12:07:52;;;;;;;;;;;18.20;99.90;;;;;;5121654;28;19974;-40
2023/08/27 12:10:18;;;;;;;;;;;18.00;99.90;;;;;;5128238;28;19943;-40
2023/08/27 12:12:46;;;;;;;;;;;17.50;99.90;;;;;;5133156;28;20350;-44
2023/08/27 12:15:13;;;;;;;;;;;16.60;99.90;;;;;;5131279;28;19968;-43
2023/08/27 12:17:38;;;;;;;;;;;15.70;99.90;;;;;;5115599;28;20404;-45
2023/08/27 12:20:06;;;;;;;;;;;14.90;99.90;;;;;;5128933;28;19908;-45
2023/08/27 12:22:44;;;;;;;;;;;14.40;99.90;;;;;;5129984;27;20290;-41
2023/08/27 12:25:11;;;;;;;;;;;14.10;99.90;;;;;;5124603;28;19919;-42
2023/08/27 12:27:37;;;;;;;;;;;14.00;99.90;;;;;;5133336;28;19915;-40
2023/08/27 12:30:04;;;;;;;;;;;14.00;99.90;;;;;;5123063;28;19915;-41
2023/08/27 12:32:32;;;;;;;;;;;14.10;99.90;;;;;;5120406;27;19916;-41
2023/08/27 12:34:58;;;;;;;;;;;14.30;99.90;;;;;;5130453;28;19911;-42
2023/08/27 12:37:24;;;;;;;;;;;14.50;99.90;;;;;;5132535;28;19959;-41
2023/08/27 12:39:50;;;;;;;;;;;14.70;99.90;;;;;;5132105;28;19918;-42
2023/08/27 12:42:16;;;;;;;;;;;14.90;99.90;;;;;;5130835;27;19911;-40
2023/08/27 12:44:41;;;;;;;;;;;15.20;99.90;;;;;;5123266;28;19912;-41
2023/08/27 12:47:07;;;;;;;;;;;15.40;99.90;;;;;;5112726;28;19912;-41
2023/08/27 12:49:33;;;;;;;;;;;15.70;99.90;;;;;;5115489;28;20250;-40
2023/08/27 12:51:59;;;;;;;;;;;16.00;99.90;;;;;;5133135;28;19930;-41
2023/08/27 12:54:25;;;;;;;;;;;16.20;99.90;;;;;;5131552;28;20306;-41
2023/08/27 12:56:50;;;;;;;;;;;16.50;99.90;;;;;;5113799;28;19916;-41
2023/08/27 12:59:17;;;;;;;;;;;16.60;99.90;;;;;;5133111;28;19908;-40
2023/08/27 13:01:42;;;;;;;;;;;16.70;99.90;;;;;;5125814;28;20331;-41
2023/08/27 13:04:08;;;;;;;;;;;16.80;99.90;;;;;;5126798;28;19911;-43
2023/08/27 13:06:34;;;;;;;;;;;16.80;99.90;;;;;;5122298;28;20016;-43
2023/08/27 13:09:00;;;;;;;;;;;16.90;99.90;;;;;;5133426;27;19912;-42
2023/08/27 13:11:25;;;;;;;;;;;17.00;99.90;;;;;;5137768;27;19907;-41
2023/08/27 13:13:51;;;;;;;;;;;17.10;99.90;;;;;;5121393;27;20331;-41
2023/08/27 13:16:17;;;;;;;;;;;17.20;99.90;;;;;;5116817;28;20351;-41
2023/08/27 13:18:42;;;;;;;;;;;17.20;99.90;;;;;;5130493;27;19916;-41
2023/08/27 13:21:08;;;;;;;;;;;17.20;99.90;;;;;;5116856;28;19915;-40
2023/08/27 13:23:33;;;;;;;;;;;17.20;99.90;;;;;;5116775;28;19982;-41
2023/08/27 13:25:59;;;;;;;;;;;17.20;99.90;;;;;;5116537;28;19939;-42
2023/08/27 13:28:24;;;;;;;;;;;17.20;99.90;;;;;;5116823;28;19956;-42
2023/08/27 13:30:50;;;;;;;;;;;17.00;99.90;;;;;;5118232;27;19919;-43
2023/08/27 13:33:15;;;;;;;;;;;16.90;99.90;;;;;;5136186;27;19963;-42
2023/08/27 13:35:41;;;;;;;;;;;16.90;99.90;;;;;;5127880;27;20290;-43
2023/08/27 13:38:07;;;;;;;;;;;16.90;99.90;;;;;;5116811;27;20248;-42
2023/08/27 13:40:33;;;;;;;;;;;16.90;99.90;;;;;;5122259;27;19920;-42
2023/08/27 13:42:58;;;;;;;;;;;16.90;99.90;;;;;;5122495;27;19961;-42
2023/08/27 13:45:24;;;;;;;;;;;17.00;99.90;;;;;;5115390;28;20316;-41
2023/08/27 13:47:50;;;;;;;;;;;17.00;99.90;;;;;;5123511;27;19912;-42
2023/08/27 13:50:16;;;;;;;;;;;16.90;99.90;;;;;;5136067;27;19907;-41
2023/08/27 13:52:42;;;;;;;;;;;16.90;99.90;;;;;;5135915;27;20289;-42
2023/08/27 13:55:08;;;;;;;;;;;16.80;99.90;;;;;;5136139;27;20010;-41
2023/08/27 13:57:33;;;;;;;;;;;16.80;99.90;;;;;;5130630;27;19918;-41
2023/08/27 13:59:59;;;;;;;;;;;16.80;99.90;;;;;;5115235;28;19912;-43
2023/08/27 14:02:24;;;;;;;;;;;16.80;99.90;;;;;;5115414;28;19958;-42
2023/08/27 14:04:50;;;;;;;;;;;16.70;99.90;;;;;;5115080;28;19911;-43
2023/08/27 14:07:16;;;;;;;;;;;16.80;99.90;;;;;;5115066;27;19916;-43
2023/08/27 14:09:41;;;;;;;;;;;16.80;99.90;;;;;;5115988;27;20360;-42